createdAt,value
2018-06-04T00:00:17.829Z,989.66
2018-06-04T00:01:17.967Z,989.68
2018-06-04T00:02:18.107Z,989.66
2018-06-04T00:03:18.245Z,989.66
2018-06-04T00:04:18.386Z,989.66
2018-06-04T00:05:18.518Z,989.63
2018-06-04T00:06:18.670Z,989.65
2018-06-04T00:07:18.813Z,989.59
2018-06-04T00:08:18.954Z,989.62
2018-06-04T00:09:19.093Z,989.66
2018-06-04T00:10:19.229Z,989.58
2018-06-04T00:11:19.366Z,989.60
2018-06-04T00:12:19.504Z,989.59
2018-06-04T00:13:19.645Z,989.60
2018-06-04T00:14:19.787Z,989.60
2018-06-04T00:15:19.925Z,989.58
2018-06-04T00:16:20.065Z,989.57
2018-06-04T00:17:20.207Z,989.59
2018-06-04T00:18:20.351Z,989.59
2018-06-04T00:19:20.490Z,989.57
2018-06-04T00:20:20.636Z,989.56
2018-06-04T00:21:20.779Z,989.60
2018-06-04T00:22:20.917Z,989.56
2018-06-04T00:23:21.064Z,989.58
2018-06-04T00:24:21.206Z,989.56
2018-06-04T00:25:21.344Z,989.56
2018-06-04T00:26:21.486Z,989.54
2018-06-04T00:27:21.628Z,989.52
2018-06-04T00:28:21.777Z,989.51
2018-06-04T00:29:21.915Z,989.52
2018-06-04T00:30:22.049Z,989.52
2018-06-04T00:31:22.191Z,989.55
2018-06-04T00:32:22.339Z,989.52
2018-06-04T00:33:22.474Z,989.49
2018-06-04T00:34:22.636Z,989.52
2018-06-04T00:35:22.768Z,989.51
2018-06-04T00:36:22.914Z,989.46
2018-06-04T00:37:23.070Z,989.44
2018-06-04T00:38:23.208Z,989.46
2018-06-04T00:39:23.347Z,989.44
2018-06-04T00:40:23.488Z,989.42
2018-06-04T00:41:23.626Z,989.39
2018-06-04T00:42:23.768Z,989.39
2018-06-04T00:43:23.917Z,989.38
2018-06-04T00:44:24.053Z,989.37
2018-06-04T00:45:24.197Z,989.36
2018-06-04T00:46:24.335Z,989.33
2018-06-04T00:47:24.473Z,989.33
2018-06-04T00:48:24.613Z,989.34
2018-06-04T00:49:24.753Z,989.30
2018-06-04T00:50:24.894Z,989.32
2018-06-04T00:51:25.034Z,989.32
2018-06-04T00:52:25.205Z,989.32
2018-06-04T00:53:32.406Z,989.33
2018-06-04T00:54:25.431Z,989.33
2018-06-04T00:55:25.560Z,989.34
2018-06-04T00:56:25.734Z,989.32
2018-06-04T00:57:31.827Z,989.32
2018-06-04T00:58:25.964Z,989.35
2018-06-04T00:59:26.105Z,989.30
2018-06-04T01:00:26.275Z,989.30
2018-06-04T01:01:26.410Z,989.32
2018-06-04T01:02:26.548Z,989.31
2018-06-04T01:03:26.689Z,989.35
2018-06-04T01:04:26.830Z,989.33
2018-06-04T01:05:26.976Z,989.35
2018-06-04T01:06:27.134Z,989.34
2018-06-04T01:07:27.268Z,989.33
2018-06-04T01:08:27.414Z,989.32
2018-06-04T01:09:27.559Z,989.32
2018-06-04T01:10:27.697Z,989.35
2018-06-04T01:11:27.839Z,989.33
2018-06-04T01:12:27.982Z,989.33
2018-06-04T01:13:28.120Z,989.34
2018-06-04T01:14:28.261Z,989.33
2018-06-04T01:15:28.401Z,989.31
2018-06-04T01:16:28.540Z,989.33
2018-06-04T01:17:28.678Z,989.33
2018-06-04T01:18:28.828Z,989.29
2018-06-04T01:19:28.969Z,989.32
2018-06-04T01:20:29.107Z,989.30
2018-06-04T01:21:29.268Z,989.28
2018-06-04T01:22:29.406Z,989.27
2018-06-04T01:23:29.549Z,989.30
2018-06-04T01:24:29.687Z,989.29
2018-06-04T01:25:29.827Z,989.29
2018-06-04T01:26:29.968Z,989.25
2018-06-04T01:27:30.113Z,989.28
2018-06-04T01:28:30.253Z,989.25
2018-06-04T01:29:30.390Z,989.26
2018-06-04T01:30:30.613Z,989.25
2018-06-04T01:31:30.640Z,989.25
2018-06-04T01:32:30.784Z,989.20
2018-06-04T01:33:30.920Z,989.21
2018-06-04T01:34:31.061Z,989.19
2018-06-04T01:35:31.202Z,989.22
2018-06-04T01:36:31.337Z,989.16
2018-06-04T01:37:31.476Z,989.16
2018-06-04T01:38:31.620Z,989.13
2018-06-04T01:39:31.752Z,989.10
2018-06-04T01:40:31.894Z,989.13
2018-06-04T01:41:32.035Z,989.14
2018-06-04T01:42:32.172Z,989.09
2018-06-04T01:43:32.316Z,989.10
2018-06-04T01:44:32.459Z,989.07
2018-06-04T01:45:32.611Z,989.07
2018-06-04T01:46:32.753Z,989.06
2018-06-04T01:47:32.886Z,989.05
2018-06-04T01:48:33.028Z,989.04
2018-06-04T01:49:33.166Z,989.03
2018-06-04T01:50:33.311Z,989.01
2018-06-04T01:51:33.448Z,989.05
2018-06-04T01:52:33.593Z,989.01
2018-06-04T01:53:33.735Z,989.00
2018-06-04T01:54:33.877Z,988.99
2018-06-04T01:55:34.021Z,988.99
2018-06-04T01:56:34.161Z,988.96
2018-06-04T01:57:34.303Z,988.94
2018-06-04T01:58:34.447Z,988.92
2018-06-04T01:59:34.590Z,988.90
2018-06-04T02:00:34.731Z,988.92
2018-06-04T02:01:34.871Z,988.91
2018-06-04T02:02:35.005Z,988.94
2018-06-04T02:03:35.146Z,988.93
2018-06-04T02:04:35.289Z,988.92
2018-06-04T02:05:35.421Z,988.97
2018-06-04T02:06:35.565Z,988.95
2018-06-04T02:07:35.703Z,988.97
2018-06-04T02:08:35.838Z,988.95
2018-06-04T02:09:35.980Z,988.93
2018-06-04T02:10:36.127Z,988.91
2018-06-04T02:11:36.269Z,988.90
2018-06-04T02:12:36.402Z,988.90
2018-06-04T02:13:36.544Z,988.90
2018-06-04T02:14:36.733Z,988.90
2018-06-04T02:15:36.883Z,988.90
2018-06-04T02:16:37.026Z,988.90
2018-06-04T02:17:37.185Z,988.87
2018-06-04T02:18:37.322Z,988.86
2018-06-04T02:19:37.459Z,988.82
2018-06-04T02:20:37.597Z,988.79
2018-06-04T02:21:37.737Z,988.81
2018-06-04T02:22:37.876Z,988.79
2018-06-04T02:23:38.016Z,988.78
2018-06-04T02:24:38.154Z,988.78
2018-06-04T02:25:38.295Z,988.78
2018-06-04T02:26:38.432Z,988.80
2018-06-04T02:27:38.572Z,988.79
2018-06-04T02:28:38.716Z,988.82
2018-06-04T02:29:38.861Z,988.76
2018-06-04T02:30:39.011Z,988.78
2018-06-04T02:31:39.144Z,988.76
2018-06-04T02:32:39.278Z,988.77
2018-06-04T02:33:39.421Z,988.75
2018-06-04T02:34:39.564Z,988.74
2018-06-04T02:35:39.705Z,988.78
2018-06-04T02:36:39.839Z,988.77
2018-06-04T02:37:39.978Z,988.75
2018-06-04T02:38:40.120Z,988.78
2018-06-04T02:39:40.268Z,988.78
2018-06-04T02:40:40.409Z,988.79
2018-06-04T02:41:40.546Z,988.77
2018-06-04T02:42:40.687Z,988.78
2018-06-04T02:43:40.833Z,988.76
2018-06-04T02:44:40.982Z,988.76
2018-06-04T02:45:41.126Z,988.73
2018-06-04T02:46:41.263Z,988.75
2018-06-04T02:47:41.401Z,988.73
2018-06-04T02:48:41.544Z,988.73
2018-06-04T02:49:41.704Z,988.71
2018-06-04T02:50:42.353Z,988.74
2018-06-04T02:51:42.006Z,988.73
2018-06-04T02:52:42.147Z,988.74
2018-06-04T02:53:42.331Z,988.74
2018-06-04T02:54:57.068Z,988.73
2018-06-04T02:55:42.574Z,988.76
2018-06-04T02:56:42.714Z,988.79
2018-06-04T02:57:42.872Z,988.80
2018-06-04T02:58:43.124Z,988.81
2018-06-04T02:59:43.137Z,988.84
2018-06-04T03:00:43.283Z,988.87
2018-06-04T03:01:43.426Z,988.84
2018-06-04T03:02:56.945Z,988.85
2018-06-04T03:03:43.704Z,988.84
2018-06-04T03:04:43.849Z,988.84
2018-06-04T03:05:44.003Z,988.82
2018-06-04T03:06:44.140Z,988.82
2018-06-04T03:07:44.282Z,988.85
2018-06-04T03:08:44.421Z,988.86
2018-06-04T03:09:44.592Z,988.83
2018-06-04T03:10:44.737Z,988.84
2018-06-04T03:11:44.877Z,988.84
2018-06-04T03:12:45.018Z,988.81
2018-06-04T03:13:45.178Z,988.82
2018-06-04T03:14:47.362Z,988.79
2018-06-04T03:15:45.506Z,988.76
2018-06-04T03:16:45.644Z,988.77
2018-06-04T03:17:45.796Z,988.79
2018-06-04T03:18:46.018Z,988.79
2018-06-04T03:19:46.038Z,988.79
2018-06-04T03:20:46.183Z,988.81
2018-06-04T03:21:46.325Z,988.78
2018-06-04T03:22:46.461Z,988.78
2018-06-04T03:23:46.625Z,988.82
2018-06-04T03:24:46.762Z,988.80
2018-06-04T03:25:46.906Z,988.78
2018-06-04T03:26:47.044Z,988.72
2018-06-04T03:27:47.203Z,988.75
2018-06-04T03:28:47.346Z,988.72
2018-06-04T03:29:47.478Z,988.69
2018-06-04T03:30:47.623Z,988.71
2018-06-04T03:31:47.760Z,988.67
2018-06-04T03:32:47.903Z,988.69
2018-06-04T03:33:48.043Z,988.68
2018-06-04T03:34:48.181Z,988.70
2018-06-04T03:35:48.318Z,988.67
2018-06-04T03:36:48.462Z,988.67
2018-06-04T03:37:49.310Z,988.65
2018-06-04T03:38:48.793Z,988.66
2018-06-04T03:39:48.945Z,988.68
2018-06-04T03:40:49.114Z,988.71
2018-06-04T03:41:49.264Z,988.67
2018-06-04T03:42:49.404Z,988.69
2018-06-04T03:43:49.552Z,988.70
2018-06-04T03:44:49.686Z,988.69
2018-06-04T03:45:49.832Z,988.67
2018-06-04T03:46:49.978Z,988.69
2018-06-04T03:47:50.111Z,988.68
2018-06-04T03:48:50.250Z,988.65
2018-06-04T03:49:50.388Z,988.68
2018-06-04T03:50:50.531Z,988.66
2018-06-04T03:51:50.670Z,988.65
2018-06-04T03:52:50.877Z,988.68
2018-06-04T03:53:50.897Z,988.68
2018-06-04T03:54:51.033Z,988.69
2018-06-04T03:55:51.169Z,988.70
2018-06-04T03:56:51.309Z,988.67
2018-06-04T03:57:51.448Z,988.66
2018-06-04T03:58:51.594Z,988.69
2018-06-04T03:59:51.737Z,988.71
2018-06-04T04:00:51.879Z,988.66
2018-06-04T04:01:52.061Z,988.68
2018-06-04T04:02:52.205Z,988.64
2018-06-04T04:03:52.296Z,988.65
2018-06-04T04:04:52.438Z,988.62
2018-06-04T04:05:52.581Z,988.60
2018-06-04T04:06:52.715Z,988.61
2018-06-04T04:07:52.862Z,988.65
2018-06-04T04:08:53.000Z,988.63
2018-06-04T04:09:53.140Z,988.62
2018-06-04T04:10:53.280Z,988.63
2018-06-04T04:11:53.423Z,988.61
2018-06-04T04:12:53.559Z,988.65
2018-06-04T04:13:53.698Z,988.61
2018-06-04T04:14:53.838Z,988.63
2018-06-04T04:15:53.981Z,988.63
2018-06-04T04:16:54.119Z,988.60
2018-06-04T04:17:54.253Z,988.59
2018-06-04T04:18:54.395Z,988.61
2018-06-04T04:19:54.531Z,988.59
2018-06-04T04:20:54.673Z,988.61
2018-06-04T04:21:54.814Z,988.56
2018-06-04T04:22:54.953Z,988.56
2018-06-04T04:23:55.094Z,988.59
2018-06-04T04:24:55.228Z,988.59
2018-06-04T04:25:55.388Z,988.59
2018-06-04T04:26:55.526Z,988.57
2018-06-04T04:27:55.703Z,988.60
2018-06-04T04:28:55.817Z,988.57
2018-06-04T04:29:55.957Z,988.56
2018-06-04T04:30:56.094Z,988.59
2018-06-04T04:31:56.233Z,988.56
2018-06-04T04:32:56.381Z,988.57
2018-06-04T04:33:56.525Z,988.54
2018-06-04T04:34:56.663Z,988.53
2018-06-04T04:35:56.802Z,988.59
2018-06-04T04:36:56.949Z,988.55
2018-06-04T04:37:57.090Z,988.55
2018-06-04T04:38:57.226Z,988.59
2018-06-04T04:39:57.372Z,988.53
2018-06-04T04:40:57.504Z,988.56
2018-06-04T04:41:57.642Z,988.57
2018-06-04T04:42:57.782Z,988.59
2018-06-04T04:43:57.926Z,988.56
2018-06-04T04:44:58.060Z,988.58
2018-06-04T04:45:58.201Z,988.59
2018-06-04T04:46:58.343Z,988.60
2018-06-04T04:47:58.483Z,988.58
2018-06-04T04:48:58.625Z,988.58
2018-06-04T04:49:58.765Z,988.59
2018-06-04T04:50:58.905Z,988.58
2018-06-04T04:51:59.048Z,988.55
2018-06-04T04:52:59.196Z,988.59
2018-06-04T04:53:59.333Z,988.58
2018-06-04T04:54:59.469Z,988.60
2018-06-04T04:55:59.614Z,988.58
2018-06-04T04:56:59.746Z,988.62
2018-06-04T04:57:59.887Z,988.67
2018-06-04T04:59:00.025Z,988.66
2018-06-04T05:00:00.160Z,988.69
2018-06-04T05:01:00.301Z,988.63
2018-06-04T05:02:00.439Z,988.65
2018-06-04T05:03:00.579Z,988.61
2018-06-04T05:04:00.725Z,988.61
2018-06-04T05:05:00.861Z,988.62
2018-06-04T05:06:00.999Z,988.58
2018-06-04T05:07:01.137Z,988.59
2018-06-04T05:08:01.278Z,988.58
2018-06-04T05:09:01.425Z,988.56
2018-06-04T05:10:01.566Z,988.57
2018-06-04T05:11:01.708Z,988.53
2018-06-04T05:12:01.851Z,988.52
2018-06-04T05:13:01.991Z,988.54
2018-06-04T05:14:02.142Z,988.51
2018-06-04T05:15:02.281Z,988.50
2018-06-04T05:16:02.421Z,988.54
2018-06-04T05:17:02.561Z,988.52
2018-06-04T05:18:02.746Z,988.51
2018-06-04T05:19:02.888Z,988.46
2018-06-04T05:20:03.036Z,988.49
2018-06-04T05:21:03.218Z,988.50
2018-06-04T05:22:03.359Z,988.49
2018-06-04T05:23:03.499Z,988.48
2018-06-04T05:24:03.641Z,988.48
2018-06-04T05:25:03.781Z,988.50
2018-06-04T05:26:03.926Z,988.49
2018-06-04T05:27:04.067Z,988.47
2018-06-04T05:28:04.211Z,988.47
2018-06-04T05:29:04.352Z,988.47
2018-06-04T05:30:04.487Z,988.49
2018-06-04T05:31:04.632Z,988.48
2018-06-04T05:32:04.774Z,988.48
2018-06-04T05:33:04.976Z,988.47
2018-06-04T05:34:05.111Z,988.49
2018-06-04T05:35:05.253Z,988.48
2018-06-04T05:36:05.399Z,988.47
2018-06-04T05:37:05.559Z,988.47
2018-06-04T05:38:05.683Z,988.49
2018-06-04T05:39:05.821Z,988.48
2018-06-04T05:40:05.959Z,988.44
2018-06-04T05:41:06.099Z,988.41
2018-06-04T05:42:06.240Z,988.45
2018-06-04T05:43:06.380Z,988.43
2018-06-04T05:44:06.520Z,988.42
2018-06-04T05:45:06.664Z,988.42
2018-06-04T05:46:06.814Z,988.43
2018-06-04T05:47:06.946Z,988.44
2018-06-04T05:48:07.085Z,988.44
2018-06-04T05:49:07.229Z,988.49
2018-06-04T05:50:07.369Z,988.44
2018-06-04T05:51:07.508Z,988.46
2018-06-04T05:52:07.655Z,988.47
2018-06-04T05:53:07.794Z,988.48
2018-06-04T05:54:07.942Z,988.47
2018-06-04T05:55:08.090Z,988.46
2018-06-04T05:56:08.220Z,988.47
2018-06-04T05:57:08.368Z,988.45
2018-06-04T05:58:08.504Z,988.44
2018-06-04T05:59:08.652Z,988.45
2018-06-04T06:00:08.792Z,988.42
2018-06-04T06:01:08.931Z,988.43
2018-06-04T06:02:09.078Z,988.42
2018-06-04T06:03:09.217Z,988.41
2018-06-04T06:04:09.367Z,988.40
2018-06-04T06:05:09.508Z,988.40
2018-06-04T06:06:09.654Z,988.42
2018-06-04T06:07:09.793Z,988.41
2018-06-04T06:08:09.934Z,988.42
2018-06-04T06:09:10.123Z,988.40
2018-06-04T06:10:10.217Z,988.41
2018-06-04T06:11:10.353Z,988.40
2018-06-04T06:12:10.496Z,988.39
2018-06-04T06:13:10.642Z,988.36
2018-06-04T06:14:10.793Z,988.37
2018-06-04T06:15:10.930Z,988.37
2018-06-04T06:16:11.069Z,988.34
2018-06-04T06:17:11.210Z,988.34
2018-06-04T06:18:11.357Z,988.35
2018-06-04T06:19:11.496Z,988.33
2018-06-04T06:20:11.641Z,988.33
2018-06-04T06:21:11.780Z,988.30
2018-06-04T06:22:11.956Z,988.35
2018-06-04T06:23:12.091Z,988.34
2018-06-04T06:24:12.228Z,988.31
2018-06-04T06:25:12.366Z,988.32
2018-06-04T06:26:12.522Z,988.30
2018-06-04T06:27:12.667Z,988.29
2018-06-04T06:28:12.874Z,988.29
2018-06-04T06:29:12.888Z,988.24
2018-06-04T06:30:13.064Z,988.26
2018-06-04T06:31:13.197Z,988.28
2018-06-04T06:32:13.338Z,988.27
2018-06-04T06:33:13.481Z,988.29
2018-06-04T06:34:13.648Z,988.26
2018-06-04T06:35:13.780Z,988.30
2018-06-04T06:36:13.919Z,988.25
2018-06-04T06:37:14.057Z,988.22
2018-06-04T06:38:14.235Z,988.23
2018-06-04T06:39:14.378Z,988.21
2018-06-04T06:40:14.526Z,988.18
2018-06-04T06:41:14.670Z,988.17
2018-06-04T06:42:14.829Z,988.16
2018-06-04T06:43:14.966Z,988.17
2018-06-04T06:44:15.111Z,988.16
2018-06-04T06:45:15.256Z,988.16
2018-06-04T06:46:15.418Z,988.11
2018-06-04T06:47:15.554Z,988.08
2018-06-04T06:48:15.691Z,988.05
2018-06-04T06:49:15.834Z,988.06
2018-06-04T06:50:16.023Z,988.06
2018-06-04T06:51:16.150Z,988.05
2018-06-04T06:52:16.296Z,988.04
2018-06-04T06:53:16.441Z,988.03
2018-06-04T06:54:16.603Z,988.06
2018-06-04T06:55:16.737Z,988.03
2018-06-04T06:56:16.878Z,988.01
2018-06-04T06:57:17.043Z,988.01
2018-06-04T06:58:17.178Z,987.99
2018-06-04T06:59:17.321Z,988.02
2018-06-04T07:00:17.467Z,988.02
2018-06-04T07:01:17.621Z,988.01
2018-06-04T07:02:17.762Z,987.99
2018-06-04T07:03:17.905Z,988.00
2018-06-04T07:04:18.046Z,987.94
2018-06-04T07:05:18.207Z,987.98
2018-06-04T07:06:18.343Z,987.93
2018-06-04T07:07:18.491Z,987.95
2018-06-04T07:08:18.627Z,987.96
2018-06-04T07:09:18.851Z,987.91
2018-06-04T07:10:18.885Z,987.90
2018-06-04T07:11:19.025Z,987.91
2018-06-04T07:12:19.182Z,987.88
2018-06-04T07:13:19.329Z,987.85
2018-06-04T07:14:19.464Z,987.87
2018-06-04T07:15:19.609Z,987.91
2018-06-04T07:16:19.750Z,987.87
2018-06-04T07:17:19.898Z,987.92
2018-06-04T07:18:20.021Z,987.87
2018-06-04T07:19:20.167Z,987.87
2018-06-04T07:20:20.317Z,987.86
2018-06-04T07:21:20.501Z,987.85
2018-06-04T07:22:20.633Z,987.90
2018-06-04T07:23:20.782Z,987.89
2018-06-04T07:24:20.997Z,987.90
2018-06-04T07:25:21.016Z,987.88
2018-06-04T07:26:21.152Z,987.87
2018-06-04T07:27:21.288Z,987.85
2018-06-04T07:28:21.432Z,987.86
2018-06-04T07:29:21.601Z,987.84
2018-06-04T07:30:21.734Z,987.80
2018-06-04T07:31:21.877Z,987.81
2018-06-04T07:32:22.014Z,987.83
2018-06-04T07:33:22.188Z,987.84
2018-06-04T07:34:43.353Z,987.81
2018-06-04T07:35:22.446Z,987.79
2018-06-04T07:36:22.589Z,987.79
2018-06-04T07:37:22.759Z,987.79
2018-06-04T07:38:23.160Z,987.76
2018-06-04T07:39:23.056Z,987.74
2018-06-04T07:40:23.199Z,987.75
2018-06-04T07:41:23.415Z,987.71
2018-06-04T07:42:23.481Z,987.73
2018-06-04T07:43:23.624Z,987.69
2018-06-04T07:44:23.793Z,987.71
2018-06-04T07:45:23.908Z,987.73
2018-06-04T07:46:24.073Z,987.67
2018-06-04T07:47:24.195Z,987.71
2018-06-04T07:48:24.333Z,987.70
2018-06-04T07:49:24.477Z,987.68
2018-06-04T07:50:24.620Z,987.68
2018-06-04T07:51:24.764Z,987.68
2018-06-04T07:52:24.906Z,987.65
2018-06-04T07:53:25.052Z,987.64
2018-06-04T07:54:25.207Z,987.66
2018-06-04T07:55:25.331Z,987.63
2018-06-04T07:56:25.478Z,987.62
2018-06-04T07:57:25.616Z,987.63
2018-06-04T07:58:25.761Z,987.60
2018-06-04T07:59:25.900Z,987.59
2018-06-04T08:00:26.046Z,987.58
2018-06-04T08:01:26.188Z,987.53
2018-06-04T08:02:26.334Z,987.54
2018-06-04T08:03:26.476Z,987.55
2018-06-04T08:04:26.674Z,987.54
2018-06-04T08:05:26.766Z,987.54
2018-06-04T08:06:26.942Z,987.58
2018-06-04T08:07:27.055Z,987.57
2018-06-04T08:08:27.199Z,987.50
2018-06-04T08:09:27.342Z,987.54
2018-06-04T08:10:27.482Z,987.55
2018-06-04T08:11:27.626Z,987.50
2018-06-04T08:12:27.764Z,987.52
2018-06-04T08:13:27.907Z,987.47
2018-06-04T08:14:28.049Z,987.47
2018-06-04T08:15:28.194Z,987.48
2018-06-04T08:16:28.336Z,987.47
2018-06-04T08:17:28.478Z,987.46
2018-06-04T08:18:28.617Z,987.43
2018-06-04T08:19:28.769Z,987.43
2018-06-04T08:20:28.913Z,987.41
2018-06-04T08:21:29.056Z,987.39
2018-06-04T08:22:29.208Z,987.36
2018-06-04T08:23:29.351Z,987.38
2018-06-04T08:24:29.507Z,987.37
2018-06-04T08:25:29.649Z,987.34
2018-06-04T08:26:29.797Z,987.38
2018-06-04T08:27:29.938Z,987.34
2018-06-04T08:28:30.091Z,987.38
2018-06-04T08:29:30.225Z,987.34
2018-06-04T08:30:30.366Z,987.33
2018-06-04T08:31:30.511Z,987.32
2018-06-04T08:32:30.660Z,987.32
2018-06-04T08:33:30.809Z,987.29
2018-06-04T08:34:30.950Z,987.31
2018-06-04T08:35:31.098Z,987.30
2018-06-04T08:36:31.250Z,987.28
2018-06-04T08:37:31.387Z,987.26
2018-06-04T08:38:31.547Z,987.28
2018-06-04T08:39:31.670Z,987.27
2018-06-04T08:40:31.818Z,987.27
2018-06-04T08:41:31.965Z,987.28
2018-06-04T08:42:32.109Z,987.28
2018-06-04T08:43:32.249Z,987.27
2018-06-04T08:44:32.393Z,987.29
2018-06-04T08:45:32.552Z,987.26
2018-06-04T08:46:32.701Z,987.24
2018-06-04T08:47:32.920Z,987.21
2018-06-04T08:48:32.940Z,987.22
2018-06-04T08:49:33.086Z,987.17
2018-06-04T08:50:33.231Z,987.20
2018-06-04T08:51:33.371Z,987.20
2018-06-04T08:52:33.514Z,987.20
2018-06-04T08:53:33.653Z,987.18
2018-06-04T08:54:33.795Z,987.21
2018-06-04T08:55:33.938Z,987.17
2018-06-04T08:56:34.097Z,987.18
2018-06-04T08:57:48.357Z,987.18
2018-06-04T08:58:34.373Z,987.16
2018-06-04T08:59:34.527Z,987.15
2018-06-04T09:00:34.674Z,987.15
2018-06-04T09:01:46.456Z,987.16
2018-06-04T09:02:34.973Z,987.18
2018-06-04T09:03:35.110Z,987.21
2018-06-04T09:04:35.272Z,987.18
2018-06-04T09:05:46.348Z,987.19
2018-06-04T09:06:35.614Z,987.19
2018-06-04T09:07:35.753Z,987.17
2018-06-04T09:08:35.899Z,987.19
2018-06-04T09:09:36.043Z,987.16
2018-06-04T09:10:36.190Z,987.16
2018-06-04T09:11:36.334Z,987.16
2018-06-04T09:12:36.498Z,987.14
2018-06-04T09:13:36.648Z,987.17
2018-06-04T09:14:36.793Z,987.16
2018-06-04T09:15:36.940Z,987.16
2018-06-04T09:16:37.100Z,987.15
2018-06-04T09:17:37.279Z,987.15
2018-06-04T09:18:37.418Z,987.13
2018-06-04T09:19:37.564Z,987.13
2018-06-04T09:20:37.722Z,987.13
2018-06-04T09:21:37.875Z,987.12
2018-06-04T09:22:38.007Z,987.10
2018-06-04T09:23:38.151Z,987.12
2018-06-04T09:24:38.319Z,987.03
2018-06-04T09:25:38.463Z,987.03
2018-06-04T09:26:38.607Z,987.02
2018-06-04T09:27:38.750Z,987.01
2018-06-04T09:28:38.907Z,987.03
2018-06-04T09:29:39.049Z,987.07
2018-06-04T09:32:11.707Z,987.10
2018-06-04T09:33:11.821Z,987.11
2018-06-04T09:34:11.968Z,987.10
2018-06-04T09:35:12.108Z,987.07
2018-06-04T09:36:12.266Z,987.09
2018-06-04T09:37:12.397Z,987.04
2018-06-04T09:38:12.544Z,987.04
2018-06-04T09:39:12.690Z,987.07
2018-06-04T09:40:12.872Z,987.07
2018-06-04T09:41:13.017Z,987.07
2018-06-04T09:42:13.161Z,987.08
2018-06-04T09:43:13.307Z,987.07
2018-06-04T09:44:13.464Z,987.06
2018-06-04T09:45:13.608Z,987.07
2018-06-04T09:46:13.740Z,987.05
2018-06-04T09:47:13.887Z,987.03
2018-06-04T09:48:14.028Z,987.03
2018-06-04T09:49:14.201Z,987.07
2018-06-04T09:50:14.331Z,987.10
2018-06-04T09:51:14.475Z,987.05
2018-06-04T09:52:14.649Z,987.04
2018-06-04T09:53:14.786Z,987.04
2018-06-04T09:54:14.931Z,987.04
2018-06-04T09:55:15.078Z,987.05
2018-06-04T09:56:15.246Z,987.03
2018-06-04T09:57:15.382Z,987.03
2018-06-04T09:58:15.526Z,987.05
2018-06-04T09:59:15.669Z,987.06
2018-06-04T10:00:15.859Z,987.03
2018-06-04T10:01:15.998Z,987.02
2018-06-04T10:02:16.141Z,986.97
2018-06-04T10:03:16.298Z,987.00
2018-06-04T10:04:16.475Z,987.01
2018-06-04T10:05:16.598Z,986.96
2018-06-04T10:06:16.745Z,986.97
2018-06-04T10:07:16.888Z,986.97
2018-06-04T10:08:17.041Z,987.00
2018-06-04T10:09:17.184Z,986.96
2018-06-04T10:10:17.326Z,986.95
2018-06-04T10:11:17.472Z,986.96
2018-06-04T10:12:17.986Z,986.96
2018-06-04T10:13:17.751Z,986.93
2018-06-04T10:14:17.900Z,986.92
2018-06-04T10:15:18.057Z,986.91
2018-06-04T10:16:18.195Z,986.92
2018-06-04T10:17:18.344Z,986.90
2018-06-04T10:18:18.501Z,986.90
2018-06-04T10:19:18.642Z,986.90
2018-06-04T10:20:18.794Z,986.94
2018-06-04T10:21:18.934Z,986.90
2018-06-04T10:22:19.079Z,986.88
2018-06-04T10:23:19.221Z,986.90
2018-06-04T10:24:19.363Z,986.88
2018-06-04T10:25:19.515Z,986.88
2018-06-04T10:26:19.661Z,986.84
2018-06-04T10:27:19.815Z,986.90
2018-06-04T10:28:19.961Z,986.87
2018-06-04T10:29:20.102Z,986.91
2018-06-04T10:30:20.241Z,986.91
2018-06-04T10:31:20.376Z,986.86
2018-06-04T10:32:20.541Z,986.86
2018-06-04T10:33:20.679Z,986.86
2018-06-04T10:34:20.821Z,986.85
2018-06-04T10:35:20.957Z,986.87
2018-06-04T10:36:21.136Z,986.90
2018-06-04T10:37:21.274Z,986.88
2018-06-04T10:38:21.423Z,986.85
2018-06-04T10:39:21.566Z,986.87
2018-06-04T10:40:21.710Z,986.87
2018-06-04T10:41:21.852Z,986.82
2018-06-04T10:42:21.995Z,986.84
2018-06-04T10:43:22.764Z,986.81
2018-06-04T10:44:22.288Z,986.79
2018-06-04T10:45:22.435Z,986.80
2018-06-04T10:46:22.592Z,986.76
2018-06-04T10:47:22.733Z,986.78
2018-06-04T10:48:22.882Z,986.78
2018-06-04T10:49:23.023Z,986.80
2018-06-04T10:50:23.176Z,986.78
2018-06-04T10:51:23.322Z,986.76
2018-06-04T10:52:23.462Z,986.70
2018-06-04T10:53:23.627Z,986.77
2018-06-04T10:54:23.765Z,986.76
2018-06-04T10:55:23.909Z,986.77
2018-06-04T10:56:24.055Z,986.74
2018-06-04T10:57:24.211Z,986.76
2018-06-04T10:58:24.350Z,986.73
2018-06-04T10:59:24.495Z,986.73
2018-06-04T11:00:24.639Z,986.75
2018-06-04T11:01:24.806Z,986.68
2018-06-04T11:02:24.948Z,986.69
2018-06-04T11:03:25.087Z,986.66
2018-06-04T11:04:25.255Z,986.64
2018-06-04T11:05:25.396Z,986.67
2018-06-04T11:06:25.544Z,986.63
2018-06-04T11:07:25.683Z,986.66
2018-06-04T11:08:25.858Z,986.64
2018-06-04T11:09:26.002Z,986.61
2018-06-04T11:10:26.151Z,986.63
2018-06-04T11:11:26.299Z,986.60
2018-06-04T11:12:26.450Z,986.60
2018-06-04T11:13:26.593Z,986.60
2018-06-04T11:14:26.742Z,986.60
2018-06-04T11:15:26.913Z,986.59
2018-06-04T11:16:27.050Z,986.58
2018-06-04T11:17:27.192Z,986.57
2018-06-04T11:18:27.339Z,986.55
2018-06-04T11:19:27.507Z,986.57
2018-06-04T11:20:27.645Z,986.54
2018-06-04T11:21:27.795Z,986.54
2018-06-04T11:22:27.966Z,986.56
2018-06-04T11:23:28.133Z,986.53
2018-06-04T11:24:28.247Z,986.50
2018-06-04T11:25:28.421Z,986.54
2018-06-04T11:26:28.563Z,986.52
2018-06-04T11:27:28.708Z,986.54
2018-06-04T11:28:28.850Z,986.55
2018-06-04T11:29:29.004Z,986.54
2018-06-04T11:30:29.216Z,986.55
2018-06-04T11:31:29.302Z,986.55
2018-06-04T11:32:29.443Z,986.49
2018-06-04T11:33:29.591Z,986.51
2018-06-04T11:34:29.724Z,986.55
2018-06-04T11:35:29.874Z,986.51
2018-06-04T11:36:30.028Z,986.52
2018-06-04T11:37:30.255Z,986.45
2018-06-04T11:38:30.357Z,986.45
2018-06-04T11:39:30.506Z,986.46
2018-06-04T11:40:30.659Z,986.44
2018-06-04T11:41:30.818Z,986.47
2018-06-04T11:42:30.960Z,986.45
2018-06-04T11:43:31.113Z,986.43
2018-06-04T11:44:31.809Z,986.42
2018-06-04T11:45:31.415Z,986.41
2018-06-04T11:46:31.554Z,986.47
2018-06-04T11:47:31.708Z,986.41
2018-06-04T11:48:31.850Z,986.40
2018-06-04T11:49:31.995Z,986.39
2018-06-04T11:50:32.142Z,986.37
2018-06-04T11:51:32.285Z,986.35
2018-06-04T11:52:32.438Z,986.32
2018-06-04T11:53:32.573Z,986.39
2018-06-04T11:54:32.730Z,986.37
2018-06-04T11:55:32.872Z,986.36
2018-06-04T11:56:33.124Z,986.35
